Time;durP1;ratioP1;P1;durP2;ratioP2;P2;SDS_P1;SDS_P2;PMS_P1;PMS_P2;Temp;Humidity;BMP_temperature;BMP_pressure;BME280_temperature;BME280_humidity;BME280_pressure;Samples;Min_cycle;Max_cycle;Signal;HPM_P1;HPM_P2
2022/01/13 00:03:48;;;;;;;16.80;13.93;;;1.90;39.20;;;;;;10299656;28;20227;-68
2022/01/13 00:08:53;;;;;;;15.27;12.27;;;1.80;39.30;;;;;;10304317;28;20226;-68
2022/01/13 00:14:11;;;;;;;16.50;13.00;;;1.80;39.20;;;;;;10303861;28;20223;-68
2022/01/13 00:19:33;;;;;;;17.50;14.60;;;1.70;39.40;;;;;;10301910;28;20231;-68
2022/01/13 00:24:37;;;;;;;17.97;13.67;;;1.70;39.30;;;;;;10303041;28;20798;-68
2022/01/13 00:29:43;;;;;;;16.93;13.40;;;1.70;39.40;;;;;;10303100;28;20235;-68
2022/01/13 00:34:47;;;;;;;19.70;15.83;;;1.60;39.30;;;;;;10293744;28;20243;-68
2022/01/13 00:39:51;;;;;;;16.63;13.90;;;1.60;39.30;;;;;;10299538;28;20241;-68
2022/01/13 00:44:55;;;;;;;18.53;14.93;;;1.60;39.30;;;;;;10304704;28;20279;-68
2022/01/13 00:49:58;;;;;;;15.87;13.17;;;1.50;39.20;;;;;;10301131;28;20227;-68
2022/01/13 00:55:08;;;;;;;15.97;12.63;;;1.50;39.20;;;;;;10298503;28;20691;-68
2022/01/13 01:00:12;;;;;;;14.33;12.80;;;1.40;39.10;;;;;;10295420;28;20235;-68
2022/01/13 01:05:15;;;;;;;17.83;13.90;;;1.40;39.20;;;;;;10305327;28;20527;-68
2022/01/13 01:10:21;;;;;;;17.23;12.10;;;1.40;39.30;;;;;;10299885;28;20745;-68
2022/01/13 01:15:24;;;;;;;17.10;13.93;;;1.30;39.30;;;;;;10301277;28;20227;-68
2022/01/13 01:20:35;;;;;;;16.37;13.77;;;1.40;39.30;;;;;;10298337;28;20735;-68
2022/01/13 01:25:46;;;;;;;17.87;14.70;;;1.40;39.20;;;;;;10301715;28;20250;-68
2022/01/13 01:30:53;;;;;;;18.67;14.47;;;1.30;39.30;;;;;;10297953;28;20613;-68
2022/01/13 01:35:57;;;;;;;16.03;13.33;;;1.30;39.20;;;;;;10300995;28;20227;-68
2022/01/13 01:41:02;;;;;;;18.10;14.60;;;1.30;39.00;;;;;;10296679;28;20227;-68
2022/01/13 01:46:05;;;;;;;15.13;12.83;;;1.20;39.10;;;;;;10297529;28;20224;-68
2022/01/13 01:51:08;;;;;;;17.90;14.40;;;1.20;39.30;;;;;;10300729;28;20230;-68
2022/01/13 01:56:13;;;;;;;16.30;13.17;;;1.20;39.30;;;;;;10297317;28;20284;-68
2022/01/13 02:01:16;;;;;;;16.17;13.77;;;1.10;39.30;;;;;;10295652;28;20242;-68
2022/01/13 02:06:20;;;;;;;15.73;12.43;;;1.10;39.30;;;;;;10303584;28;20227;-68
2022/01/13 02:11:25;;;;;;;15.87;12.20;;;1.10;39.30;;;;;;10297250;28;20703;-68
2022/01/13 02:16:43;;;;;;;16.87;13.50;;;1.10;39.30;;;;;;10301023;28;20235;-68
2022/01/13 02:21:48;;;;;;;17.57;13.00;;;1.10;39.50;;;;;;10299761;28;20737;-68
2022/01/13 02:26:51;;;;;;;14.93;11.90;;;1.10;39.50;;;;;;10300195;28;20230;-68
2022/01/13 02:31:54;;;;;;;16.20;12.17;;;1.10;39.50;;;;;;10303715;28;20223;-68
2022/01/13 02:37:00;;;;;;;17.33;13.80;;;1.10;39.50;;;;;;10304969;28;20231;-68
2022/01/13 02:42:11;;;;;;;16.30;13.77;;;1.00;39.50;;;;;;10305083;28;20227;-68
2022/01/13 02:47:34;;;;;;;16.80;13.60;;;1.00;39.50;;;;;;10307127;28;20235;-68
2022/01/13 02:52:43;;;;;;;17.17;12.87;;;0.90;39.40;;;;;;10304258;28;20234;-68
2022/01/13 02:57:46;;;;;;;18.60;13.83;;;0.70;39.70;;;;;;10304619;28;20612;-69
2022/01/13 03:02:51;;;;;;;17.50;14.03;;;0.70;39.80;;;;;;10304804;28;20231;-68
2022/01/13 03:07:55;;;;;;;17.60;13.83;;;0.60;40.00;;;;;;10309143;28;20239;-68
2022/01/13 03:13:00;;;;;;;18.03;14.17;;;0.60;40.20;;;;;;10304629;28;20747;-68
2022/01/13 03:18:03;;;;;;;17.60;13.70;;;0.60;40.20;;;;;;10308202;28;20613;-68
2022/01/13 03:23:10;;;;;;;16.23;12.63;;;0.60;40.30;;;;;;10302249;28;20231;-68
2022/01/13 03:28:17;;;;;;;18.77;14.43;;;0.60;40.40;;;;;;10303363;28;20242;-68
2022/01/13 03:33:20;;;;;;;18.77;13.70;;;0.70;40.50;;;;;;10302116;28;20226;-68
2022/01/13 03:38:26;;;;;;;18.20;14.50;;;0.70;40.50;;;;;;10302993;28;20234;-68
2022/01/13 03:43:29;;;;;;;20.37;15.40;;;0.70;40.50;;;;;;10300766;28;20234;-68
2022/01/13 03:48:32;;;;;;;19.07;15.03;;;0.70;40.60;;;;;;10302524;28;20644;-68
2022/01/13 03:54:12;;;;;;;20.57;15.27;;;0.70;40.60;;;;;;10302370;28;20234;-68
2022/01/13 03:59:46;;;;;;;19.20;14.93;;;0.70;41.20;;;;;;10302776;28;20234;-68
2022/01/13 04:04:51;;;;;;;20.73;15.77;;;0.70;41.20;;;;;;10304256;28;20769;-68
2022/01/13 04:10:27;;;;;;;21.17;15.77;;;0.70;41.00;;;;;;10304545;28;20272;-68
2022/01/13 04:15:32;;;;;;;20.33;15.53;;;0.70;41.30;;;;;;10301828;28;20740;-68
2022/01/13 04:20:35;;;;;;;20.13;15.43;;;0.90;41.20;;;;;;10301210;28;20235;-68
2022/01/13 04:25:43;;;;;;;21.27;16.67;;;0.80;41.10;;;;;;10304193;28;20318;-68
2022/01/13 04:30:50;;;;;;;22.00;16.57;;;0.80;41.10;;;;;;10301781;28;20258;-68
2022/01/13 04:35:53;;;;;;;24.43;18.07;;;0.70;41.00;;;;;;10301305;28;20241;-68
2022/01/13 04:40:59;;;;;;;25.87;18.43;;;0.70;40.90;;;;;;10391336;22;20229;-70
2022/01/13 04:46:04;;;;;;;26.40;18.73;;;0.70;41.00;;;;;;10382288;28;20217;-70
2022/01/13 04:51:07;;;;;;;24.80;18.13;;;0.70;41.10;;;;;;10396820;28;20225;-70
2022/01/13 04:56:13;;;;;;;22.77;17.97;;;0.70;41.00;;;;;;10393980;28;20221;-71
2022/01/13 05:01:18;;;;;;;27.83;19.17;;;0.70;41.80;;;;;;10394966;28;20605;-70
2022/01/13 05:06:21;;;;;;;27.93;19.60;;;0.70;41.10;;;;;;10390501;28;20579;-69
2022/01/13 05:11:25;;;;;;;26.53;19.07;;;0.70;41.10;;;;;;10396908;28;20724;-69
2022/01/13 05:16:35;;;;;;;29.37;20.20;;;0.70;41.40;;;;;;10394395;28;20346;-70
2022/01/13 05:21:55;;;;;;;30.17;20.47;;;0.70;41.30;;;;;;10387940;28;20637;-69
2022/01/13 05:26:58;;;;;;;29.80;20.23;;;0.80;41.30;;;;;;10393929;28;20228;-69
2022/01/13 05:32:04;;;;;;;29.97;20.43;;;0.80;41.30;;;;;;10394180;28;20249;-68
2022/01/13 05:37:07;;;;;;;35.43;23.33;;;0.80;41.50;;;;;;10394778;28;20228;-68
2022/01/13 05:42:10;;;;;;;34.43;21.93;;;0.70;41.40;;;;;;10394914;28;20771;-69
2022/01/13 05:47:15;;;;;;;31.23;21.63;;;0.80;41.60;;;;;;10393426;28;20551;-68
2022/01/13 05:52:18;;;;;;;31.17;21.70;;;0.80;41.70;;;;;;10391319;28;20230;-68
2022/01/13 05:57:21;;;;;;;31.43;21.70;;;0.70;41.50;;;;;;10393963;28;20234;-68
2022/01/13 06:02:26;;;;;;;33.33;22.60;;;0.80;41.70;;;;;;10391182;28;20225;-69
2022/01/13 06:07:29;;;;;;;30.33;22.13;;;0.80;41.90;;;;;;10400342;28;20228;-69
2022/01/13 06:12:36;;;;;;;22.67;15.60;;;0.80;41.80;;;;;;10398945;28;20240;-69
2022/01/13 06:17:42;;;;;;;31.77;21.63;;;0.80;42.40;;;;;;10397397;28;20221;-68
2022/01/13 06:22:47;;;;;;;31.00;22.50;;;0.90;42.50;;;;;;10398628;28;20229;-69
2022/01/13 06:27:51;;;;;;;30.70;21.30;;;0.90;42.30;;;;;;10398346;28;20229;-69
2022/01/13 06:33:15;;;;;;;30.47;21.20;;;1.00;42.20;;;;;;10400034;28;20272;-69
2022/01/13 06:38:18;;;;;;;29.80;20.17;;;1.10;42.40;;;;;;10401523;28;20225;-69
2022/01/13 06:43:21;;;;;;;32.60;22.13;;;1.20;42.30;;;;;;10399492;28;20242;-68
2022/01/13 06:48:26;;;;;;;28.47;19.97;;;1.20;42.00;;;;;;10401327;28;20233;-68
2022/01/13 06:53:29;;;;;;;30.83;21.90;;;1.20;42.00;;;;;;10399522;28;20222;-68
2022/01/13 06:58:32;;;;;;;31.93;21.50;;;1.30;41.90;;;;;;10396114;28;20705;-68
2022/01/13 07:03:37;;;;;;;33.07;21.63;;;1.30;41.80;;;;;;10397626;28;20226;-69
2022/01/13 07:08:40;;;;;;;30.73;21.07;;;1.30;42.00;;;;;;10396243;28;20237;-68
2022/01/13 07:13:43;;;;;;;27.70;19.63;;;1.30;42.00;;;;;;10400237;28;20720;-69
2022/01/13 07:18:48;;;;;;;29.77;20.67;;;1.30;41.90;;;;;;10397575;28;20252;-68
2022/01/13 07:23:53;;;;;;;27.73;19.87;;;1.30;42.00;;;;;;10396259;28;20234;-68
2022/01/13 07:28:57;;;;;;;26.97;19.17;;;1.30;42.00;;;;;;10386404;28;20465;-69
2022/01/13 07:34:02;;;;;;;27.77;20.70;;;1.30;42.00;;;;;;10385054;28;20222;-69
2022/01/13 07:39:06;;;;;;;34.40;22.97;;;1.30;42.00;;;;;;10388242;28;20268;-68
2022/01/13 07:44:10;;;;;;;30.90;21.17;;;1.30;42.10;;;;;;10390098;28;20222;-69
2022/01/13 07:49:14;;;;;;;29.33;20.53;;;1.30;42.10;;;;;;10390701;28;20232;-69
2022/01/13 07:54:18;;;;;;;27.63;19.13;;;1.30;42.30;;;;;;10389485;28;20226;-69
2022/01/13 07:59:21;;;;;;;25.87;18.90;;;1.30;42.40;;;;;;10385924;28;20244;-69
2022/01/13 08:04:25;;;;;;;30.30;21.37;;;1.30;42.30;;;;;;10389181;28;20716;-69
2022/01/13 08:09:29;;;;;;;33.03;22.40;;;1.40;42.40;;;;;;10387293;28;20221;-69
2022/01/13 08:14:32;;;;;;;32.77;22.80;;;1.40;42.40;;;;;;10390573;28;20685;-68
2022/01/13 08:19:48;;;;;;;31.33;22.60;;;1.40;42.40;;;;;;10390517;28;20237;-68
2022/01/13 08:24:53;;;;;;;35.70;23.43;;;1.50;42.70;;;;;;10392853;28;20224;-68
2022/01/13 08:29:56;;;;;;;35.03;23.33;;;1.50;42.50;;;;;;10385111;28;20237;-68
2022/01/13 08:35:00;;;;;;;32.87;22.60;;;1.60;42.50;;;;;;10392520;28;20225;-69
2022/01/13 08:40:05;;;;;;;32.07;21.87;;;1.60;42.60;;;;;;10394532;28;20217;-68
2022/01/13 08:45:12;;;;;;;30.37;20.80;;;1.70;42.50;;;;;;10390743;28;20591;-68
2022/01/13 08:50:16;;;;;;;30.03;19.93;;;1.70;42.60;;;;;;10395963;28;20232;-68
2022/01/13 08:55:20;;;;;;;30.30;20.67;;;1.80;42.70;;;;;;10381776;28;20234;-68
2022/01/13 09:00:23;;;;;;;32.93;22.13;;;1.80;42.70;;;;;;10386605;28;20233;-69
2022/01/13 09:05:28;;;;;;;32.00;22.47;;;1.90;42.60;;;;;;10382436;28;22920;-68
2022/01/13 09:10:31;;;;;;;31.53;21.50;;;2.00;42.70;;;;;;10383264;28;20233;-68
2022/01/13 09:15:37;;;;;;;32.70;21.63;;;2.00;42.60;;;;;;10384831;28;20218;-68
2022/01/13 09:20:42;;;;;;;33.63;22.03;;;2.10;42.50;;;;;;10384483;28;20316;-69
2022/01/13 09:25:45;;;;;;;32.83;21.90;;;2.10;42.50;;;;;;10386942;28;20218;-69
2022/01/13 09:30:48;;;;;;;29.13;20.07;;;2.20;42.50;;;;;;10381054;28;20418;-67
2022/01/13 09:35:53;;;;;;;29.23;21.53;;;2.20;42.70;;;;;;10382691;28;20773;-67
2022/01/13 09:40:56;;;;;;;30.27;21.50;;;2.30;43.00;;;;;;10385349;28;20236;-68
2022/01/13 09:46:00;;;;;;;32.33;22.53;;;2.40;42.70;;;;;;10386498;28;20226;-67
2022/01/13 09:51:04;;;;;;;30.07;20.93;;;2.50;42.70;;;;;;10384250;28;20271;-67
2022/01/13 09:56:08;;;;;;;29.57;20.83;;;2.50;42.70;;;;;;10384383;28;20237;-67
2022/01/13 10:01:12;;;;;;;33.57;22.80;;;2.50;42.50;;;;;;10384197;28;20226;-68
2022/01/13 10:06:18;;;;;;;28.63;20.23;;;2.60;42.70;;;;;;10385607;28;20602;-69
2022/01/13 10:11:34;;;;;;;24.57;16.93;;;2.60;42.60;;;;;;10382921;28;20453;-68
2022/01/13 10:16:47;;;;;;;23.53;18.17;;;2.70;42.70;;;;;;10385744;28;20573;-68
2022/01/13 10:21:58;;;;;;;23.57;17.43;;;2.70;42.70;;;;;;10382014;28;20265;-68
2022/01/13 10:27:04;;;;;;;22.93;17.30;;;2.70;42.70;;;;;;10383847;28;20222;-68
2022/01/13 10:32:09;;;;;;;25.57;18.17;;;2.80;42.60;;;;;;10383312;28;20537;-68
2022/01/13 10:37:16;;;;;;;21.77;16.80;;;2.80;42.50;;;;;;10386499;28;20232;-69
2022/01/13 10:48:00;;;;;;;18.63;14.50;;;3.00;42.70;;;;;;10456893;28;20231;-71
2022/01/13 10:53:06;;;;;;;23.07;15.67;;;3.00;42.30;;;;;;10439041;28;20565;-68
2022/01/13 10:58:10;;;;;;;19.20;15.60;;;3.00;42.40;;;;;;10444579;28;20225;-68
2022/01/13 11:03:16;;;;;;;18.17;14.47;;;2.90;42.40;;;;;;10432762;28;20242;-69
2022/01/13 11:08:26;;;;;;;18.60;14.00;;;2.90;42.60;;;;;;10437059;28;20217;-69
2022/01/13 11:13:36;;;;;;;17.47;13.40;;;2.90;42.80;;;;;;10434439;28;20315;-70
2022/01/13 11:18:39;;;;;;;19.17;14.00;;;2.90;42.50;;;;;;10433326;28;20704;-72
2022/01/13 11:23:49;;;;;;;19.67;15.00;;;3.00;42.40;;;;;;10436176;28;20232;-72
2022/01/13 11:28:52;;;;;;;21.77;15.83;;;3.00;42.50;;;;;;10433491;28;20224;-72
2022/01/13 11:33:55;;;;;;;20.87;15.40;;;2.90;42.40;;;;;;10426749;28;20217;-72
2022/01/13 11:39:02;;;;;;;19.80;14.50;;;3.00;43.40;;;;;;10416954;28;20233;-72
2022/01/13 11:44:17;;;;;;;34.80;24.77;;;3.00;42.90;;;;;;10409983;28;20948;-69
2022/01/13 11:49:25;;;;;;;22.63;17.67;;;3.10;43.00;;;;;;10417470;28;20800;-69
2022/01/13 11:54:32;;;;;;;22.07;16.97;;;3.20;42.60;;;;;;10415679;28;20229;-70
2022/01/13 12:00:28;;;;;;;22.50;17.27;;;3.20;42.60;;;;;;10421336;28;20593;-69
2022/01/13 12:05:42;;;;;;;23.57;16.77;;;3.20;42.80;;;;;;10412976;28;20209;-70
2022/01/13 12:10:51;;;;;;;27.00;19.70;;;3.20;42.60;;;;;;10415304;28;20225;-70
2022/01/13 12:15:55;;;;;;;25.07;17.87;;;3.10;42.60;;;;;;10418442;28;20225;-69
2022/01/13 12:21:20;;;;;;;26.67;18.33;;;3.00;42.60;;;;;;10430952;28;20221;-69
2022/01/13 12:26:48;;;;;;;20.90;15.37;;;3.00;42.60;;;;;;10425575;28;20225;-69
2022/01/13 12:31:53;;;;;;;21.30;15.03;;;3.00;43.30;;;;;;10434824;28;20224;-69
2022/01/13 12:36:58;;;;;;;22.43;16.57;;;3.10;43.00;;;;;;10430744;28;20712;-68
2022/01/13 12:42:05;;;;;;;22.43;16.23;;;3.20;43.10;;;;;;10430155;28;20319;-69
2022/01/13 12:47:09;;;;;;;19.80;14.97;;;3.20;43.00;;;;;;10436531;28;20225;-68
2022/01/13 12:52:28;;;;;;;18.03;14.57;;;3.40;43.00;;;;;;10433560;28;20609;-68
2022/01/13 12:57:32;;;;;;;21.57;16.57;;;3.40;42.90;;;;;;10436132;28;20563;-68
2022/01/13 13:02:35;;;;;;;21.33;16.67;;;3.40;42.60;;;;;;10426363;28;20222;-68
2022/01/13 13:07:42;;;;;;;20.40;15.57;;;3.50;42.60;;;;;;10432881;28;20233;-68
2022/01/13 13:12:53;;;;;;;21.77;16.73;;;3.40;42.80;;;;;;10430107;28;20222;-68
2022/01/13 13:17:56;;;;;;;21.40;16.73;;;3.50;42.90;;;;;;10428345;28;20313;-68
2022/01/13 13:23:03;;;;;;;22.17;17.07;;;3.50;42.50;;;;;;10432053;28;20240;-69
2022/01/13 13:28:31;;;;;;;22.07;17.07;;;3.50;42.60;;;;;;10427855;28;20330;-69
2022/01/13 13:33:38;;;;;;;22.73;17.57;;;3.60;42.90;;;;;;10429275;28;20243;-69
2022/01/13 13:38:50;;;;;;;20.10;15.70;;;3.60;42.70;;;;;;10428048;28;20228;-69
2022/01/13 13:43:55;;;;;;;21.50;15.93;;;3.70;42.70;;;;;;10421085;28;20221;-69
2022/01/13 13:48:59;;;;;;;22.30;17.00;;;3.70;42.40;;;;;;10425288;28;20236;-69
2022/01/13 13:54:11;;;;;;;24.40;17.33;;;3.60;42.20;;;;;;10423990;28;20799;-69
2022/01/13 13:59:20;;;;;;;21.30;16.67;;;3.50;42.40;;;;;;10424936;28;20770;-69
2022/01/13 14:04:39;;;;;;;26.37;21.00;;;3.40;42.60;;;;;;10422464;28;20779;-70
2022/01/13 14:09:42;;;;;;;24.40;18.33;;;3.40;43.00;;;;;;10426390;28;20225;-70
2022/01/13 14:14:47;;;;;;;22.40;17.73;;;3.40;42.70;;;;;;10429363;28;20728;-68
2022/01/13 14:20:02;;;;;;;22.40;17.17;;;3.30;42.80;;;;;;10425137;28;20228;-67
2022/01/13 14:25:10;;;;;;;22.27;17.53;;;3.40;43.20;;;;;;10420854;28;20581;-67
2022/01/13 14:30:24;;;;;;;25.10;18.10;;;3.40;43.00;;;;;;10436093;28;20629;-67
2022/01/13 14:35:28;;;;;;;22.27;17.37;;;3.50;42.90;;;;;;10428729;28;20569;-68
2022/01/13 14:40:43;;;;;;;24.27;18.67;;;3.60;42.80;;;;;;10392266;28;1152377;-67
2022/01/13 14:45:48;;;;;;;24.43;18.03;;;3.50;43.00;;;;;;10440628;28;20236;-68
2022/01/13 14:50:51;;;;;;;26.10;18.97;;;3.40;42.70;;;;;;10430893;28;20240;-68
2022/01/13 14:55:54;;;;;;;26.17;19.97;;;3.40;42.70;;;;;;10431178;28;20221;-67
2022/01/13 15:00:59;;;;;;;24.07;17.77;;;3.40;42.90;;;;;;10425827;28;20217;-68
2022/01/13 15:06:03;;;;;;;25.40;19.03;;;3.60;43.10;;;;;;10421961;28;20287;-68
2022/01/13 15:11:06;;;;;;;23.97;17.70;;;3.40;42.60;;;;;;10428981;28;21145;-70
2022/01/13 15:16:11;;;;;;;23.23;17.57;;;3.40;42.70;;;;;;10428400;28;20232;-71
2022/01/13 15:21:14;;;;;;;27.13;19.93;;;3.40;42.90;;;;;;10423914;28;20713;-70
2022/01/13 15:26:18;;;;;;;38.57;25.90;;;3.40;42.80;;;;;;10430279;28;20236;-70
2022/01/13 15:31:22;;;;;;;32.17;22.00;;;3.30;42.70;;;;;;10431978;28;20225;-70
2022/01/13 15:36:26;;;;;;;29.10;20.27;;;3.40;43.10;;;;;;10426222;28;20229;-70
2022/01/13 15:41:30;;;;;;;30.40;20.80;;;3.50;43.00;;;;;;10429600;28;20760;-70
2022/01/13 15:46:35;;;;;;;28.60;21.43;;;3.60;42.90;;;;;;10426004;28;20263;-70
2022/01/13 15:51:38;;;;;;;32.30;21.63;;;3.50;42.90;;;;;;10430428;28;20806;-70
2022/01/13 15:56:41;;;;;;;32.50;21.77;;;3.50;42.80;;;;;;10422573;28;20229;-70
2022/01/13 16:01:45;;;;;;;35.33;22.80;;;3.60;42.80;;;;;;10432909;28;20225;-69
2022/01/13 16:06:49;;;;;;;33.77;23.20;;;3.60;42.90;;;;;;10428851;28;20230;-69
2022/01/13 16:11:52;;;;;;;43.07;28.00;;;3.60;42.90;;;;;;10430473;28;20236;-69
2022/01/13 16:16:56;;;;;;;33.33;22.80;;;3.60;42.80;;;;;;10430223;28;20221;-69
2022/01/13 16:22:00;;;;;;;29.57;20.43;;;3.60;42.90;;;;;;10418154;28;20595;-70
2022/01/13 16:27:03;;;;;;;30.60;20.73;;;3.50;42.90;;;;;;10423555;28;20218;-70
2022/01/13 16:32:08;;;;;;;32.70;20.97;;;3.50;43.00;;;;;;10422685;28;20619;-70
2022/01/13 16:37:11;;;;;;;26.27;17.17;;;3.50;43.00;;;;;;10425710;28;20232;-70
2022/01/13 16:42:15;;;;;;;25.80;18.07;;;3.50;42.90;;;;;;10461000;22;20268;-75
2022/01/13 16:47:20;;;;;;;28.23;17.60;;;3.50;42.90;;;;;;10435651;28;20229;-77
2022/01/13 16:52:24;;;;;;;24.63;17.20;;;3.50;43.10;;;;;;10434123;28;20232;-76
2022/01/13 16:57:28;;;;;;;29.83;20.30;;;3.50;42.90;;;;;;10430794;28;20236;-76
2022/01/13 17:02:33;;;;;;;29.00;20.90;;;3.50;42.90;;;;;;10429180;28;20233;-76
2022/01/13 17:07:37;;;;;;;31.17;22.10;;;3.50;43.10;;;;;;10432128;28;20226;-76
2022/01/13 17:12:40;;;;;;;42.37;31.20;;;3.50;43.00;;;;;;10430665;28;20221;-76
2022/01/13 17:17:48;;;;;;;33.87;22.67;;;3.40;42.90;;;;;;10429275;28;20225;-77
2022/01/13 17:22:51;;;;;;;35.40;20.77;;;3.40;43.00;;;;;;10431395;28;20316;-76
2022/01/13 17:27:55;;;;;;;79.30;56.30;;;3.30;42.90;;;;;;10427113;28;20709;-76
2022/01/13 17:32:59;;;;;;;41.53;26.23;;;3.30;42.90;;;;;;10432149;28;20217;-77
2022/01/13 17:38:03;;;;;;;37.67;25.47;;;3.30;43.10;;;;;;10428302;28;20213;-76
2022/01/13 17:43:06;;;;;;;32.83;20.97;;;3.30;44.10;;;;;;10421702;28;20221;-76
2022/01/13 17:48:12;;;;;;;27.67;19.03;;;3.40;44.60;;;;;;10423647;28;20235;-75
2022/01/13 17:53:15;;;;;;;28.33;18.73;;;3.50;43.70;;;;;;10419265;28;20243;-75
2022/01/13 17:58:18;;;;;;;25.70;16.97;;;3.60;43.50;;;;;;10424019;28;20597;-75
2022/01/13 18:03:23;;;;;;;28.53;19.03;;;3.60;43.30;;;;;;10420673;28;20338;-75
2022/01/13 18:08:27;;;;;;;29.37;18.87;;;3.80;43.50;;;;;;10447078;28;20220;-75
2022/01/13 18:13:31;;;;;;;28.33;19.17;;;3.80;43.30;;;;;;10477118;28;20255;-75
2022/01/13 18:18:35;;;;;;;25.97;17.80;;;3.80;43.10;;;;;;10471238;28;20243;-75
2022/01/13 18:23:38;;;;;;;25.93;17.57;;;3.80;43.00;;;;;;10467922;28;20244;-75
2022/01/13 18:28:41;;;;;;;26.63;17.20;;;3.80;42.90;;;;;;10470144;28;20231;-75
2022/01/13 18:33:47;;;;;;;28.27;19.23;;;3.80;42.80;;;;;;10474032;28;20615;-75
2022/01/13 18:38:50;;;;;;;28.10;19.97;;;3.80;42.80;;;;;;10467505;28;20303;-75
2022/01/13 18:43:53;;;;;;;27.93;19.33;;;3.80;42.90;;;;;;10473943;28;20228;-75
2022/01/13 18:48:58;;;;;;;32.63;20.80;;;3.90;43.10;;;;;;10466596;28;20220;-75
2022/01/13 18:54:01;;;;;;;29.37;21.40;;;3.90;43.00;;;;;;10473942;28;20238;-73
2022/01/13 18:59:04;;;;;;;29.60;20.77;;;4.00;42.90;;;;;;10468493;28;20898;-73
2022/01/13 19:04:15;;;;;;;32.23;20.73;;;3.80;42.70;;;;;;10465394;28;20228;-73
2022/01/13 19:09:19;;;;;;;32.37;21.10;;;3.80;42.70;;;;;;10465449;28;20844;-74
2022/01/13 19:14:22;;;;;;;30.00;22.30;;;3.80;42.60;;;;;;10476365;28;20243;-76
2022/01/13 19:19:32;;;;;;;31.10;21.77;;;3.80;42.80;;;;;;10469392;28;20271;-75
2022/01/13 19:24:36;;;;;;;36.97;23.83;;;3.80;42.90;;;;;;10477046;28;20589;-76
2022/01/13 19:29:39;;;;;;;30.23;20.60;;;3.80;42.70;;;;;;10468667;28;20247;-77
2022/01/13 19:34:44;;;;;;;30.97;21.53;;;3.80;43.30;;;;;;10471084;28;20228;-76
2022/01/13 19:39:49;;;;;;;32.60;21.50;;;3.80;42.50;;;;;;10472041;28;20220;-75
2022/01/13 19:44:52;;;;;;;32.87;22.40;;;3.90;42.50;;;;;;10462326;28;20236;-76
2022/01/13 19:49:57;;;;;;;27.67;16.80;;;3.70;42.60;;;;;;10471359;28;20231;-76
2022/01/13 19:55:01;;;;;;;33.47;21.70;;;3.70;42.80;;;;;;10466272;28;20225;-75
2022/01/13 20:00:07;;;;;;;28.77;18.63;;;3.70;42.70;;;;;;10469730;28;20220;-76
2022/01/13 20:05:12;;;;;;;31.73;20.67;;;3.70;42.80;;;;;;10470676;28;20229;-76
2022/01/13 20:10:15;;;;;;;33.10;20.50;;;3.70;42.70;;;;;;10474394;28;20236;-76
2022/01/13 20:15:19;;;;;;;33.10;21.63;;;3.70;42.40;;;;;;10471625;28;20255;-75
2022/01/13 20:20:24;;;;;;;31.87;20.97;;;3.60;43.10;;;;;;10467075;28;20235;-76
2022/01/13 20:25:30;;;;;;;29.93;19.57;;;3.50;42.80;;;;;;10476356;28;20312;-76
2022/01/13 20:30:35;;;;;;;39.37;23.03;;;3.40;42.70;;;;;;10466056;28;20221;-75
2022/01/13 20:35:41;;;;;;;32.70;21.33;;;3.40;42.60;;;;;;10477016;22;20227;-69
2022/01/13 20:40:48;;;;;;;37.53;23.03;;;3.30;42.80;;;;;;10467723;28;20236;-69
2022/01/13 20:45:53;;;;;;;34.20;19.47;;;3.30;42.80;;;;;;10458228;28;20224;-69
2022/01/13 20:50:59;;;;;;;33.00;20.13;;;3.20;42.70;;;;;;10467478;28;21210;-69
2022/01/13 20:56:03;;;;;;;39.43;20.83;;;3.10;42.90;;;;;;10462630;28;20797;-69
2022/01/13 21:01:06;;;;;;;29.30;19.77;;;3.10;42.70;;;;;;10464291;28;20228;-66
2022/01/13 21:06:11;;;;;;;26.37;16.53;;;3.10;42.90;;;;;;10458714;28;20240;-66
2022/01/13 21:11:16;;;;;;;31.50;17.93;;;3.00;43.00;;;;;;10468321;28;20300;-70
2022/01/13 21:16:19;;;;;;;30.73;18.97;;;3.00;42.90;;;;;;10464066;28;20227;-70
2022/01/13 21:21:26;;;;;;;27.93;18.50;;;3.00;43.00;;;;;;10466444;28;20278;-66
2022/01/13 21:26:30;;;;;;;27.83;16.47;;;3.10;43.30;;;;;;10460102;28;20440;-66
2022/01/13 21:31:34;;;;;;;27.60;17.50;;;3.10;43.00;;;;;;10459391;28;20222;-68
2022/01/13 21:36:38;;;;;;;32.90;19.03;;;3.10;43.10;;;;;;10459429;28;20217;-68
2022/01/13 21:41:42;;;;;;;30.87;19.77;;;3.10;43.10;;;;;;10459290;28;20688;-68
2022/01/13 21:46:46;;;;;;;24.17;16.50;;;3.00;42.70;;;;;;10456748;28;20235;-68
2022/01/13 21:51:51;;;;;;;24.20;15.33;;;3.00;42.90;;;;;;10460210;28;20235;-66
2022/01/13 21:56:54;;;;;;;28.80;17.53;;;2.90;43.00;;;;;;10467076;28;20224;-68
2022/01/13 22:01:57;;;;;;;29.10;18.67;;;2.90;43.10;;;;;;10467460;28;20306;-70
2022/01/13 22:07:02;;;;;;;29.00;18.00;;;3.00;43.40;;;;;;10467421;28;20221;-70
2022/01/13 22:12:06;;;;;;;28.67;18.30;;;3.00;43.50;;;;;;10471378;28;20228;-69
2022/01/13 22:17:10;;;;;;;30.63;19.13;;;3.10;43.40;;;;;;10468030;28;20606;-69
2022/01/13 22:22:23;;;;;;;28.80;18.60;;;3.10;43.30;;;;;;10461162;28;20318;-69
2022/01/13 22:27:26;;;;;;;27.90;17.57;;;3.20;43.00;;;;;;10466529;28;20247;-70
2022/01/13 22:32:29;;;;;;;35.90;18.53;;;3.10;42.90;;;;;;10465210;28;20232;-66
2022/01/13 22:37:36;;;;;;;47.00;19.97;;;3.10;42.90;;;;;;10467967;28;20937;-67
2022/01/13 22:42:40;;;;;;;29.37;17.27;;;3.00;42.80;;;;;;10462845;28;20220;-67
2022/01/13 22:47:45;;;;;;;38.47;18.63;;;2.90;43.10;;;;;;10464165;28;20573;-66
2022/01/13 22:52:49;;;;;;;41.67;18.30;;;2.90;43.00;;;;;;10467782;28;20250;-67
2022/01/13 22:57:54;;;;;;;26.73;16.03;;;2.90;43.00;;;;;;10468277;28;20224;-66
2022/01/13 23:02:57;;;;;;;53.87;17.83;;;2.80;42.90;;;;;;10463021;28;20232;-69
2022/01/13 23:08:01;;;;;;;46.10;17.03;;;2.90;43.10;;;;;;10470717;28;20249;-68
2022/01/13 23:13:06;;;;;;;31.40;16.80;;;2.80;43.20;;;;;;10470766;28;20258;-68
2022/01/13 23:23:31;;;;;;;25.17;16.23;;;2.90;43.30;;;;;;10474537;28;20230;-68
2022/01/13 23:28:34;;;;;;;39.87;18.57;;;2.80;43.10;;;;;;10466369;28;20343;-68
2022/01/13 23:33:37;;;;;;;62.90;17.97;;;2.90;43.10;;;;;;10465274;28;20254;-68
2022/01/13 23:38:42;;;;;;;44.53;16.53;;;2.90;43.00;;;;;;10466502;28;20617;-68
2022/01/13 23:43:45;;;;;;;50.13;16.87;;;2.80;43.10;;;;;;10462465;28;20723;-68
2022/01/13 23:48:49;;;;;;;32.53;14.57;;;2.80;42.90;;;;;;10469179;28;20315;-68
2022/01/13 23:53:54;;;;;;;59.60;16.27;;;2.70;42.80;;;;;;10464843;28;20243;-68
2022/01/13 23:58:57;;;;;;;27.23;16.00;;;2.50;42.90;;;;;;10462544;28;20221;-66
